Bowie, MD

12:12 AM EDT on September 24, 2014 (GMT -0400)
Saddlebrook West | Change Station
CLOSE
Current Station
Personal Weather Station
Location: Bowie, MD
Elevation: 144 ft
Nearby Weather Stations

Elev 144 ft 39.00 °N, 76.75 °W | Updated 5 minutes ago

Partly Cloudy
Partly Cloudy
50.4 °F
Feels Like 50.4 °F
N
0.0
Wind Variable Wind from SSE

Today
High -- | Low -- °F
--% Chance of Precip.
Yesterday
High -- | Low -- °F
Precip. -- in
6:56 AM 7:00 PM
Waning Crescent, 0% visible
Pressure 30.41 in
Visibility 10.0 miles
Clouds Clear
Dew Point 49 °F
Humidity 95%
Rainfall 0.00 in
Snow Depth Not available.
UV 0 out of 12
Pollen 3.90 out of 12
Air Quality Not available.
Flu Activity Not available.
METAR KFME 240351Z AUTO 00000KT 10SM CLR 09/08 A3041 RMK AO1

More Conditions Fewer Conditions

Pressure 30.41 in
Visibility 10.0 miles
Clouds Clear
Dew Point 49 °F
Humidity 95%
Rainfall 0.00 in
Snow Depth Not available.
UV 0 out of 12
Pollen 3.90 out of 12
Air Quality Not available.
Flu Activity Not available.
METAR KFME 240351Z AUTO 00000KT 10SM CLR 09/08 A3041 RMK AO1

More Conditions Fewer Conditions

10-Day Weather Forecast

Almanac

Astronomy

Sep. 24, 2014 Rise Set
Actual Time 6:56 AM EDT 7:00 PM EDT
Civil Twilight 6:29 AM EDT 7:27 PM EDT
Nautical Twilight 5:58 AM EDT 7:58 PM EDT
Astronomical Twilight 5:27 AM EDT 8:29 PM EDT
Moon 7:14 AM EDT 7:10 PM EDT
Length of Visible Light 12h 57m
Length of Day
12h 04m
Tomorrow will be 2m 31s shorter.
Waning Crescent, 0% of the Moon is Illuminated
Today
Waning Crescent
Sep 24
New
Oct 1
First Quarter
Oct 8
Full
Oct 15
Last Quarter

Yesterday's Extremes

State Highs State Lows

Community

WunderPhotos

Upload Photos

1,755,890 photos uploaded!

WunderBlogs® & News

Nearby

Snow Depth

Station Depth Elevation
No new snow has been reported.

Earthquake Activity

City Distance Mag. Time & Date
No recent earthquake activity has been reported nearby.
Minimum magnitude displayed is 2.5.

Coastal Water Temperatures

Place Temperature
Cambridge, MD 71.1 °F
Tolchester Beach, MD 70.0 °F
Baltimore, MD 75.0 °F

Nearby Weather Stations